Language: 


Des rapports , des résumés tant et plus, au choix de chacun....


Données Historiques de Météogheer
Journalier Rapport pour Mars 8, 2017 Unitée:  Les deux    Impériale   Métrique
Suivant Jour »
Journalier Hebdomadaire Mensuel Annuel Sur mesure
  Max: Min: Moyenne:
Température: 54.1 °F /  12.3 °C 32 °F /  0.0 °C 47.8 °F /  8.8 °C
Point de rosée: 53.1 °F /  11.7 °C 35.6 °F /  2.0 °C 46.8 °F /  8.2 °C
Humidité: 98% 0% 96%
Vent: 25.7mph /  41.4km/h - 10.1mph /  16.3km/h
Rafales: 28mph /  45.1km/h - -
Vent- - SW
Pression: 30.1 in /  1018.8 hPa 0 in /  0.0 hPa -
Pluie: 0.28 in /  7.1 mm    
Historical Graphs
 
 
Données tabulaires pour Mars 8, 2017
Heure Température Point de rosée Pression Vent Vent Rafales Humidité Pluie Taux (Horaire) Conditions
00:03 36.9 °F /  2.7 °C 35.6 °F /  2.0 °C 30.1in /  1018.8hPa SSW 2mph /  3.2km/h 3.6mph /  5.8km/h 95% 0in /  0.0mm
00:08 37 °F /  2.8 °C 35.8 °F /  2.1 °C 30.1in /  1018.8hPa South 2.7mph /  4.3km/h 3.8mph /  6.1km/h 95% 0in /  0.0mm
00:13 37.2 °F /  2.9 °C 36 °F /  2.2 °C 30.1in /  1018.8hPa Calm   4mph /  6.4km/h 95% 0in /  0.0mm
00:18 37.2 °F /  2.9 °C 36 °F /  2.2 °C 30.1in /  1018.8hPa SSW 3.6mph /  5.8km/h 4.7mph /  7.6km/h 95% 0in /  0.0mm
00:23 37.6 °F /  3.1 °C 36.1 °F /  2.3 °C 30.1in /  1018.8hPa South 3.1mph /  5.0km/h 4.7mph /  7.6km/h 95% 0in /  0.0mm
00:28 37.6 °F /  3.1 °C 36.1 °F /  2.3 °C 30.1in /  1018.8hPa South 2.2mph /  3.5km/h 4.7mph /  7.6km/h 95% 0in /  0.0mm
00:33 37.6 °F /  3.1 °C 36.7 °F /  2.6 °C 30.1in /  1018.8hPa SSE 4.3mph /  6.9km/h 4.3mph /  6.9km/h 96% 0in /  0.0mm
00:38 37.8 °F /  3.2 °C 36.9 °F /  2.7 °C 30.1in /  1018.8hPa South 2.7mph /  4.3km/h 5.8mph /  9.3km/h 96% 0in /  0.0mm
00:39 37.8 °F /  3.2 °C 36.9 °F /  2.7 °C 30.1in /  1018.8hPa South 2.2mph /  3.5km/h 5.8mph /  9.3km/h 96% 0in /  0.0mm
00:44 37.8 °F /  3.2 °C 36.9 °F /  2.7 °C 30.1in /  1018.8hPa SW 3.6mph /  5.8km/h 5.8mph /  9.3km/h 96% 0in /  0.0mm
00:49 37.8 °F /  3.2 °C 36.9 °F /  2.7 °C 30.1in /  1018.8hPa South 3.6mph /  5.8km/h 4.3mph /  6.9km/h 96% 0in /  0.0mm
00:50 37.8 °F /  3.2 °C 36.9 °F /  2.7 °C 30.1in /  1018.8hPa South 3.1mph /  5.0km/h 4.3mph /  6.9km/h 96% 0in /  0.0mm
00:55 37.8 °F /  3.2 °C 36.9 °F /  2.7 °C 30.1in /  1018.8hPa SSE 3.4mph /  5.5km/h 4mph /  6.4km/h 96% 0in /  0.0mm
01:00 37.8 °F /  3.2 °C 36.9 °F /  2.7 °C 30.1in /  1018.8hPa South 3.6mph /  5.8km/h 4.9mph /  7.9km/h 96% 0in /  0.0mm
01:05 37.8 °F /  3.2 °C 36.9 °F /  2.7 °C 30.1in /  1018.8hPa South 5.4mph /  8.7km/h 5.4mph /  8.7km/h 96% 0in /  0.0mm
01:10 37.9 °F /  3.3 °C 37 °F /  2.8 °C 30.1in /  1018.2hPa South 3.8mph /  6.1km/h 6.3mph /  10.1km/h 96% 0in /  0.0mm
01:15 38.1 °F /  3.4 °C 37.4 °F /  3.0 °C 30.1in /  1018.2hPa SSW 4.9mph /  7.9km/h 6.3mph /  10.1km/h 97% 0in /  0.0mm
01:20 38.5 °F /  3.6 °C 37.6 °F /  3.1 °C 30.1in /  1018.2hPa South 4.3mph /  6.9km/h 6.3mph /  10.1km/h 97% 0in /  0.0mm
01:25 38.5 °F /  3.6 °C 37.8 °F /  3.2 °C 30.1in /  1018.2hPa South 4.9mph /  7.9km/h 6.3mph /  10.1km/h 97% 0in /  0.0mm
01:30 38.5 °F /  3.6 °C 37.8 °F /  3.2 °C 30.1in /  1018.2hPa South 3.6mph /  5.8km/h 6.3mph /  10.1km/h 97% 0in /  0.0mm
01:35 38.7 °F /  3.7 °C 37.9 °F /  3.3 °C 30.1in /  1018.2hPa South 4mph /  6.4km/h 6.3mph /  10.1km/h 97% 0in /  0.0mm
01:37 38.7 °F /  3.7 °C 37.9 °F /  3.3 °C 30.1in /  1018.2hPa South 6.3mph /  10.1km/h 6.3mph /  10.1km/h 97% 0in /  0.0mm
01:42 38.8 °F /  3.8 °C 38.1 °F /  3.4 °C 30.1in /  1018.2hPa South 4mph /  6.4km/h 7.8mph /  12.6km/h 97% 0in /  0.0mm
01:47 38.8 °F /  3.8 °C 38.1 °F /  3.4 °C 30.1in /  1018.2hPa South 3.8mph /  6.1km/h 7.8mph /  12.6km/h 97% 0in /  0.0mm
01:52 39 °F /  3.9 °C 38.3 °F /  3.5 °C 30.1in /  1018.2hPa South 6.3mph /  10.1km/h 8.5mph /  13.7km/h 97% 0in /  0.0mm
01:57 39.4 °F /  4.1 °C 38.7 °F /  3.7 °C 30.1in /  1018.2hPa SSW 8.7mph /  14.0km/h 8.7mph /  14.0km/h 97% 0in /  0.0mm
02:02 32 °F /  0.0 °C 38.8 °F /  3.8 °C 0in /  0.0hPa South 7.4mph /  11.9km/h 9.4mph /  15.1km/h 0% 0in /  0.0mm
02:07 39.7 °F /  4.3 °C 39 °F /  3.9 °C 30.1in /  1018.2hPa SSW 5.4mph /  8.7km/h 9.4mph /  15.1km/h 97% 0in /  0.0mm
02:12 39.9 °F /  4.4 °C 39.2 °F /  4.0 °C 30in /  1016.8hPa SSW 5.6mph /  9.0km/h 8.7mph /  14.0km/h 97% 0in /  0.0mm
02:17 39.9 °F /  4.4 °C 39.2 °F /  4.0 °C 30in /  1016.8hPa South 4.3mph /  6.9km/h 8.7mph /  14.0km/h 97% 0in /  0.0mm
02:22 40.1 °F /  4.5 °C 39.4 °F /  4.1 °C 30in /  1016.8hPa South 5.4mph /  8.7km/h 8.5mph /  13.7km/h 97% 0in /  0.0mm
02:27 40.3 °F /  4.6 °C 39.6 °F /  4.2 °C 30in /  1016.8hPa South 4.3mph /  6.9km/h 8.9mph /  14.3km/h 97% 0in /  0.0mm
02:32 40.5 °F /  4.7 °C 39.7 °F /  4.3 °C 30in /  1016.8hPa SSW 6.3mph /  10.1km/h 8.9mph /  14.3km/h 97% 0in /  0.0mm
02:37 40.5 °F /  4.7 °C 39.7 °F /  4.3 °C 30in /  1016.8hPa South 6mph /  9.7km/h 8.5mph /  13.7km/h 97% 0in /  0.0mm
02:42 40.6 °F /  4.8 °C 39.9 °F /  4.4 °C 30in /  1016.1hPa SSW 8.1mph /  13.0km/h 8.1mph /  13.0km/h 97% 0in /  0.0mm
02:47 40.8 °F /  4.9 °C 39.7 °F /  4.3 °C 30in /  1016.1hPa South 6.3mph /  10.1km/h 8.1mph /  13.0km/h 96% 0in /  0.0mm
02:52 40.8 °F /  4.9 °C 39.7 °F /  4.3 °C 30in /  1016.1hPa South 6.5mph /  10.5km/h 9.6mph /  15.4km/h 96% 0in /  0.0mm
02:57 41 °F /  5.0 °C 39.9 °F /  4.4 °C 30in /  1016.8hPa SSW 8.7mph /  14.0km/h 14.1mph /  22.7km/h 96% 0in /  0.0mm
03:02 41 °F /  5.0 °C 39.7 °F /  4.3 °C 30in /  1016.8hPa SSW 8.1mph /  13.0km/h 14.1mph /  22.7km/h 95% 0in /  0.0mm
03:07 41 °F /  5.0 °C 39.7 °F /  4.3 °C 30in /  1016.8hPa South 6mph /  9.7km/h 8.7mph /  14.0km/h 95% 0in /  0.0mm
03:12 41 °F /  5.0 °C 39.4 °F /  4.1 °C 30in /  1016.1hPa SSW 6.3mph /  10.1km/h 10.5mph /  16.9km/h 94% 0in /  0.0mm
03:17 41 °F /  5.0 °C 39.4 °F /  4.1 °C 30in /  1016.1hPa South 7.4mph /  11.9km/h 10.5mph /  16.9km/h 94% 0in /  0.0mm
03:22 41 °F /  5.0 °C 39 °F /  3.9 °C 30in /  1016.1hPa South 8.7mph /  14.0km/h 12.5mph /  20.1km/h 93% 0in /  0.0mm
03:27 41.2 °F /  5.1 °C 39.4 °F /  4.1 °C 30in /  1016.1hPa South 5.8mph /  9.3km/h 13mph /  20.9km/h 93% 0in /  0.0mm
03:32 41.4 °F /  5.2 °C 39.2 °F /  4.0 °C 30in /  1016.1hPa South 10.1mph /  16.3km/h 13mph /  20.9km/h 92% 0in /  0.0mm
03:37 41.4 °F /  5.2 °C 39.2 °F /  4.0 °C 30in /  1016.1hPa South 6.7mph /  10.8km/h 12.8mph /  20.6km/h 92% 0in /  0.0mm
03:42 41.5 °F /  5.3 °C 39 °F /  3.9 °C 30in /  1016.1hPa SSW 10.1mph /  16.3km/h 12.5mph /  20.1km/h 91% 0in /  0.0mm
03:47 41.7 °F /  5.4 °C 39 °F /  3.9 °C 30in /  1016.1hPa South 10.3mph /  16.6km/h 12.5mph /  20.1km/h 90% 0in /  0.0mm
03:52 41.7 °F /  5.4 °C 39 °F /  3.9 °C 30in /  1016.1hPa South 8.7mph /  14.0km/h 11mph /  17.7km/h 90% 0in /  0.0mm
03:57 41.7 °F /  5.4 °C 38.7 °F /  3.7 °C 30in /  1015.1hPa South 10.7mph /  17.2km/h 11mph /  17.7km/h 89% 0in /  0.0mm
04:02 41.9 °F /  5.5 °C 38.7 °F /  3.7 °C 30in /  1015.1hPa SSW 7.8mph /  12.6km/h 12.8mph /  20.6km/h 88% 0in /  0.0mm
04:07 41.9 °F /  5.5 °C 38.7 °F /  3.7 °C 30in /  1015.1hPa SSE 7.2mph /  11.6km/h 12.8mph /  20.6km/h 88% 0in /  0.0mm
04:12 41.9 °F /  5.5 °C 38.7 °F /  3.7 °C 30in /  1015.1hPa South 5.6mph /  9.0km/h 10.5mph /  16.9km/h 88% 0in /  0.0mm
04:17 41.9 °F /  5.5 °C 38.7 °F /  3.7 °C 30in /  1015.1hPa South 8.7mph /  14.0km/h 9.6mph /  15.4km/h 88% 0in /  0.0mm
04:22 41.9 °F /  5.5 °C 38.8 °F /  3.8 °C 30in /  1015.1hPa South 6mph /  9.7km/h 12.1mph /  19.5km/h 89% 0in /  0.0mm
04:27 42.1 °F /  5.6 °C 39 °F /  3.9 °C 30in /  1015.1hPa South 6.3mph /  10.1km/h 12.1mph /  19.5km/h 89% 0in /  0.0mm
04:32 42.1 °F /  5.6 °C 39.4 °F /  4.1 °C 30in /  1015.1hPa South 5.6mph /  9.0km/h 11mph /  17.7km/h 90% 0in /  0.0mm
04:37 42.3 °F /  5.7 °C 39.7 °F /  4.3 °C 30in /  1016.1hPa South 6.3mph /  10.1km/h 10.7mph /  17.2km/h 91% 0in /  0.0mm
04:42 42.3 °F /  5.7 °C 40.1 °F /  4.5 °C 30in /  1016.1hPa SSW 8.5mph /  13.7km/h 10.7mph /  17.2km/h 92% 0in /  0.0mm
04:47 42.4 °F /  5.8 °C 40.3 °F /  4.6 °C 30in /  1016.1hPa South 5.8mph /  9.3km/h 14.5mph /  23.3km/h 92% 0in /  0.0mm
04:52 42.4 °F /  5.8 °C 40.5 °F /  4.7 °C 30in /  1015.1hPa South 8.9mph /  14.3km/h 14.5mph /  23.3km/h 93% 0in /  0.0mm
04:57 42.6 °F /  5.9 °C 40.6 °F /  4.8 °C 30in /  1015.1hPa South 10.3mph /  16.6km/h 11.4mph /  18.3km/h 93% 0in /  0.0mm
05:02 42.6 °F /  5.9 °C 41 °F /  5.0 °C 30in /  1015.1hPa South 10.5mph /  16.9km/h 11.4mph /  18.3km/h 94% 0in /  0.0mm
05:07 42.6 °F /  5.9 °C 41 °F /  5.0 °C 29.9in /  1014.1hPa South 9.6mph /  15.4km/h 12.3mph /  19.8km/h 94% 0in /  0.0mm
05:12 42.6 °F /  5.9 °C 41.4 °F /  5.2 °C 29.9in /  1014.1hPa SSW 6mph /  9.7km/h 15.4mph /  24.8km/h 95% 0in /  0.0mm
05:17 42.6 °F /  5.9 °C 41.4 °F /  5.2 °C 29.9in /  1014.1hPa SSW 6.3mph /  10.1km/h 15.4mph /  24.8km/h 95% 0in /  0.0mm
05:22 42.8 °F /  6.0 °C 41.7 °F /  5.4 °C 29.9in /  1014.1hPa South 10.5mph /  16.9km/h 13.2mph /  21.2km/h 96% 0.01in /  0.3mm
05:27 42.8 °F /  6.0 °C 41.7 °F /  5.4 °C 29.9in /  1014.1hPa SSW 10.1mph /  16.3km/h 13.2mph /  21.2km/h 96% 0.01in /  0.3mm
05:32 42.8 °F /  6.0 °C 41.7 °F /  5.4 °C 29.9in /  1014.1hPa South 9.2mph /  14.8km/h 13.2mph /  21.2km/h 96% 0.01in /  0.3mm
05:37 42.8 °F /  6.0 °C 42.1 °F /  5.6 °C 29.9in /  1014.1hPa South 12.3mph /  19.8km/h 13.2mph /  21.2km/h 97% 0.01in /  0.3mm
05:42 42.8 °F /  6.0 °C 42.1 °F /  5.6 °C 29.9in /  1014.1hPa SSW 10.5mph /  16.9km/h 13.2mph /  21.2km/h 97% 0.01in /  0.3mm
05:47 42.8 °F /  6.0 °C 42.1 °F /  5.6 °C 29.9in /  1014.1hPa South 8.9mph /  14.3km/h 13.2mph /  21.2km/h 97% 0.01in /  0.3mm
05:52 42.8 °F /  6.0 °C 42.1 °F /  5.6 °C 29.9in /  1013.1hPa South 7.4mph /  11.9km/h 13.2mph /  21.2km/h 97% 0.02in /  0.5mm
05:57 42.8 °F /  6.0 °C 42.1 °F /  5.6 °C 29.9in /  1013.1hPa South 12.5mph /  20.1km/h 13mph /  20.9km/h 97% 0.02in /  0.5mm
06:02 42.8 °F /  6.0 °C 42.1 °F /  5.6 °C 29.9in /  1013.1hPa SSW 8.5mph /  13.7km/h 13mph /  20.9km/h 97% 0.02in /  0.5mm
06:07 42.8 °F /  6.0 °C 42.3 °F /  5.7 °C 29.9in /  1013.1hPa South 8.5mph /  13.7km/h 12.5mph /  20.1km/h 98% 0.03in /  0.8mm
06:12 42.8 °F /  6.0 °C 42.3 °F /  5.7 °C 29.9in /  1013.1hPa South 8.5mph /  13.7km/h 15.4mph /  24.8km/h 98% 0.03in /  0.8mm
06:17 42.8 °F /  6.0 °C 42.3 °F /  5.7 °C 29.9in /  1013.1hPa SSW 8.7mph /  14.0km/h 15.4mph /  24.8km/h 98% 0.03in /  0.8mm
06:22 42.8 °F /  6.0 °C 42.3 °F /  5.7 °C 29.9in /  1012.1hPa SSW 9.4mph /  15.1km/h 13.2mph /  21.2km/h 98% 0.04in /  1.0mm
06:27 43 °F /  6.1 °C 42.4 °F /  5.8 °C 29.9in /  1012.1hPa South 8.7mph /  14.0km/h 13.2mph /  21.2km/h 98% 0.05in /  1.3mm
06:32 43 °F /  6.1 °C 42.4 °F /  5.8 °C 29.9in /  1012.1hPa South 12.8mph /  20.6km/h 13.2mph /  21.2km/h 98% 0.05in /  1.3mm
06:37 43 °F /  6.1 °C 42.4 °F /  5.8 °C 29.9in /  1013.1hPa SSW 12.8mph /  20.6km/h 12.8mph /  20.6km/h 98% 0.06in /  1.5mm
06:42 43.2 °F /  6.2 °C 42.6 °F /  5.9 °C 29.9in /  1013.1hPa SSE 9.4mph /  15.1km/h 12.8mph /  20.6km/h 98% 0.07in /  1.8mm
06:47 43.2 °F /  6.2 °C 42.6 °F /  5.9 °C 29.9in /  1013.1hPa SW 6.3mph /  10.1km/h 16.1mph /  25.9km/h 98% 0.07in /  1.8mm
06:52 43.3 °F /  6.3 °C 42.8 °F /  6.0 °C 29.9in /  1013.1hPa SSW 6mph /  9.7km/h 17mph /  27.4km/h 98% 0.07in /  1.8mm
06:57 43.3 °F /  6.3 °C 42.8 °F /  6.0 °C 29.9in /  1013.1hPa South 11.9mph /  19.1km/h 17.9mph /  28.8km/h 98% 0.07in /  1.8mm
07:02 43.5 °F /  6.4 °C 43 °F /  6.1 °C 29.9in /  1013.1hPa SSW 8.7mph /  14.0km/h 17.9mph /  28.8km/h 98% 0.07in /  1.8mm
07:07 43.5 °F /  6.4 °C 43 °F /  6.1 °C 29.9in /  1013.1hPa South 9.8mph /  15.8km/h 17.7mph /  28.5km/h 98% 0.06in /  1.5mm
07:12 43.5 °F /  6.4 °C 43 °F /  6.1 °C 29.9in /  1013.1hPa SSW 10.5mph /  16.9km/h 13mph /  20.9km/h 98% 0.07in /  1.8mm
07:17 43.5 °F /  6.4 °C 43.2 °F /  6.2 °C 29.9in /  1013.1hPa SSW 7.4mph /  11.9km/h 16.8mph /  27.0km/h 98% 0.08in /  2.0mm
07:22 43.5 °F /  6.4 °C 43.2 °F /  6.2 °C 29.9in /  1012.1hPa South 5.8mph /  9.3km/h 16.8mph /  27.0km/h 98% 0.07in /  1.8mm
07:27 43.5 °F /  6.4 °C 43.2 °F /  6.2 °C 29.9in /  1012.1hPa SW 9.6mph /  15.4km/h 15.2mph /  24.5km/h 98% 0.06in /  1.5mm
07:32 43.5 °F /  6.4 °C 43.2 °F /  6.2 °C 29.9in /  1012.1hPa SSW 9.6mph /  15.4km/h 15.2mph /  24.5km/h 98% 0.06in /  1.5mm
07:37 43.9 °F /  6.6 °C 43.3 °F /  6.3 °C 29.9in /  1013.1hPa SW 10.5mph /  16.9km/h 15.7mph /  25.3km/h 98% 0.06in /  1.5mm
07:42 43.9 °F /  6.6 °C 43.3 °F /  6.3 °C 29.9in /  1013.1hPa SSW 13.4mph /  21.6km/h 15.7mph /  25.3km/h 98% 0.05in /  1.3mm
07:47 43.9 °F /  6.6 °C 43.3 °F /  6.3 °C 29.9in /  1013.1hPa SSW 7.2mph /  11.6km/h 14.5mph /  23.3km/h 98% 0.06in /  1.5mm
07:52 43.9 °F /  6.6 °C 43.3 °F /  6.3 °C 29.9in /  1013.1hPa WSW 6.5mph /  10.5km/h 12.1mph /  19.5km/h 98% 0.05in /  1.3mm
07:57 44.1 °F /  6.7 °C 43.5 °F /  6.4 °C 29.9in /  1013.1hPa SSW 12.3mph /  19.8km/h 12.3mph /  19.8km/h 98% 0.05in /  1.3mm
08:02 44.1 °F /  6.7 °C 43.5 °F /  6.4 °C 29.9in /  1013.1hPa SSW 6mph /  9.7km/h 12.3mph /  19.8km/h 98% 0.06in /  1.5mm
08:07 44.1 °F /  6.7 °C 43.5 °F /  6.4 °C 29.9in /  1013.1hPa SSW 10.3mph /  16.6km/h 12.5mph /  20.1km/h 98% 0.04in /  1.0mm
08:12 44.2 °F /  6.8 °C 43.5 °F /  6.4 °C 29.9in /  1013.1hPa SW 10.3mph /  16.6km/h 15.2mph /  24.5km/h 98% 0.04in /  1.0mm
08:17 44.2 °F /  6.8 °C 43.5 °F /  6.4 °C 29.9in /  1013.1hPa SSW 12.3mph /  19.8km/h 15.2mph /  24.5km/h 98% 0.03in /  0.8mm
08:22 44.2 °F /  6.8 °C 43.9 °F /  6.6 °C 29.9in /  1013.1hPa SSW 8.5mph /  13.7km/h 14.1mph /  22.7km/h 98% 0.03in /  0.8mm
08:27 44.2 °F /  6.8 °C 43.9 °F /  6.6 °C 29.9in /  1013.1hPa SW 10.3mph /  16.6km/h 14.1mph /  22.7km/h 98% 0.03in /  0.8mm
08:32 44.2 °F /  6.8 °C 43.9 °F /  6.6 °C 29.9in /  1013.1hPa SW 5.8mph /  9.3km/h 12.5mph /  20.1km/h 98% 0.02in /  0.5mm
08:37 44.4 °F /  6.9 °C 44.1 °F /  6.7 °C 29.9in /  1013.1hPa SSW 8.7mph /  14.0km/h 10.3mph /  16.6km/h 98% 0.02in /  0.5mm
08:42 44.8 °F /  7.1 °C 44.2 °F /  6.8 °C 29.9in /  1013.1hPa WSW 8.9mph /  14.3km/h 12.8mph /  20.6km/h 98% 0.02in /  0.5mm
08:47 45 °F /  7.2 °C 44.2 °F /  6.8 °C 29.9in /  1013.1hPa SW 12.3mph /  19.8km/h 12.8mph /  20.6km/h 98% 0.01in /  0.3mm
08:52 45.1 °F /  7.3 °C 44.4 °F /  6.9 °C 29.9in /  1013.1hPa SW 7.8mph /  12.6km/h 12.8mph /  20.6km/h 98% 0.01in /  0.3mm
08:57 45.1 °F /  7.3 °C 44.8 °F /  7.1 °C 29.9in /  1013.1hPa South 9.6mph /  15.4km/h 14.3mph /  23.0km/h 98% 0.01in /  0.3mm
09:02 45.1 °F /  7.3 °C 44.8 °F /  7.1 °C 29.9in /  1013.1hPa SSW 6mph /  9.7km/h 14.3mph /  23.0km/h 98% 0in /  0.0mm
09:07 45.3 °F /  7.4 °C 45 °F /  7.2 °C 29.9in /  1012.1hPa South 8.5mph /  13.7km/h 12.5mph /  20.1km/h 98% 0in /  0.0mm
09:12 45.7 °F /  7.6 °C 45.1 °F /  7.3 °C 29.9in /  1012.1hPa SSW 9.8mph /  15.8km/h 13.4mph /  21.6km/h 98% 0in /  0.0mm
09:17 45.9 °F /  7.7 °C 45.1 °F /  7.3 °C 29.9in /  1012.1hPa SW 8.9mph /  14.3km/h 13.4mph /  21.6km/h 98% 0in /  0.0mm
09:22 45.9 °F /  7.7 °C 45.3 °F /  7.4 °C 29.9in /  1012.1hPa SSW 7.4mph /  11.9km/h 13.4mph /  21.6km/h 98% 0in /  0.0mm
09:27 46 °F /  7.8 °C 45.7 °F /  7.6 °C 29.9in /  1012.1hPa SSW 8.5mph /  13.7km/h 13.4mph /  21.6km/h 98% 0in /  0.0mm
09:32 46.2 °F /  7.9 °C 45.9 °F /  7.7 °C 29.9in /  1012.1hPa SW 10.5mph /  16.9km/h 13.2mph /  21.2km/h 98% 0in /  0.0mm
09:37 46.6 °F /  8.1 °C 45.9 °F /  7.7 °C 29.9in /  1012.1hPa South 10.5mph /  16.9km/h 13.2mph /  21.2km/h 98% 0in /  0.0mm
09:42 46.6 °F /  8.1 °C 46 °F /  7.8 °C 29.9in /  1012.1hPa SSW 7.8mph /  12.6km/h 12.5mph /  20.1km/h 98% 0in /  0.0mm
09:48 46.8 °F /  8.2 °C 46.2 °F /  7.9 °C 29.9in /  1012.1hPa WSW 10.3mph /  16.6km/h 12.5mph /  20.1km/h 98% 0in /  0.0mm
09:53 46.9 °F /  8.3 °C 46.6 °F /  8.1 °C 29.9in /  1012.1hPa SSW 9.8mph /  15.8km/h 13mph /  20.9km/h 98% 0in /  0.0mm
09:58 47.3 °F /  8.5 °C 46.8 °F /  8.2 °C 29.9in /  1012.1hPa WSW 7.6mph /  12.2km/h 13mph /  20.9km/h 98% 0in /  0.0mm
10:03 47.5 °F /  8.6 °C 46.9 °F /  8.3 °C 29.9in /  1012.1hPa SSW 8.5mph /  13.7km/h 12.5mph /  20.1km/h 98% 0in /  0.0mm
10:08 47.7 °F /  8.7 °C 47.1 °F /  8.4 °C 29.9in /  1012.1hPa WSW 10.5mph /  16.9km/h 12.5mph /  20.1km/h 98% 0in /  0.0mm
10:13 47.8 °F /  8.8 °C 47.3 °F /  8.5 °C 29.9in /  1012.1hPa SW 10.5mph /  16.9km/h 12.5mph /  20.1km/h 98% 0in /  0.0mm
10:18 48 °F /  8.9 °C 47.5 °F /  8.6 °C 29.9in /  1012.1hPa WSW 12.8mph /  20.6km/h 12.8mph /  20.6km/h 98% 0in /  0.0mm
10:23 48.2 °F /  9.0 °C 47.7 °F /  8.7 °C 29.9in /  1013.1hPa SW 8.5mph /  13.7km/h 12.8mph /  20.6km/h 98% 0in /  0.0mm
10:28 48.2 °F /  9.0 °C 47.7 °F /  8.7 °C 29.9in /  1013.1hPa SW 10.3mph /  16.6km/h 12.8mph /  20.6km/h 98% 0in /  0.0mm
10:33 48.4 °F /  9.1 °C 47.8 °F /  8.8 °C 29.9in /  1013.1hPa SSW 7.6mph /  12.2km/h 10.7mph /  17.2km/h 98% 0in /  0.0mm
10:38 48.6 °F /  9.2 °C 48 °F /  8.9 °C 29.9in /  1013.1hPa SW 5.6mph /  9.0km/h 10.7mph /  17.2km/h 98% 0in /  0.0mm
10:43 48.7 °F /  9.3 °C 48.2 °F /  9.0 °C 29.9in /  1013.1hPa SW 7.6mph /  12.2km/h 10.7mph /  17.2km/h 98% 0in /  0.0mm
10:48 48.9 °F /  9.4 °C 48.4 °F /  9.1 °C 29.9in /  1013.1hPa SW 7.6mph /  12.2km/h 11.2mph /  18.0km/h 98% 0in /  0.0mm
10:53 49.1 °F /  9.5 °C 48.6 °F /  9.2 °C 29.9in /  1013.1hPa SSW 7.8mph /  12.6km/h 13.2mph /  21.2km/h 98% 0in /  0.0mm
10:58 49.3 °F /  9.6 °C 48.7 °F /  9.3 °C 29.9in /  1013.1hPa SSW 7.4mph /  11.9km/h 13.2mph /  21.2km/h 98% 0in /  0.0mm
11:03 49.5 °F /  9.7 °C 48.9 °F /  9.4 °C 29.9in /  1013.1hPa SSW 4.9mph /  7.9km/h 10.1mph /  16.3km/h 98% 0in /  0.0mm
11:08 49.6 °F /  9.8 °C 49.1 °F /  9.5 °C 29.9in /  1013.1hPa SSW 7.2mph /  11.6km/h 10.7mph /  17.2km/h 98% 0in /  0.0mm
11:13 49.8 °F /  9.9 °C 49.3 °F /  9.6 °C 29.9in /  1013.1hPa SSW 11mph /  17.7km/h 11mph /  17.7km/h 98% 0.01in /  0.3mm
11:18 50.2 °F /  10.1 °C 49.6 °F /  9.8 °C 29.9in /  1013.1hPa WSW 12.3mph /  19.8km/h 12.5mph /  20.1km/h 98% 0.01in /  0.3mm
11:23 50.5 °F /  10.3 °C 50 °F /  10.0 °C 29.9in /  1013.1hPa WSW 10.1mph /  16.3km/h 13.4mph /  21.6km/h 98% 0.01in /  0.3mm
11:28 50.7 °F /  10.4 °C 50.2 °F /  10.1 °C 29.9in /  1013.1hPa WSW 8.1mph /  13.0km/h 13.4mph /  21.6km/h 98% 0.01in /  0.3mm
11:33 50.9 °F /  10.5 °C 50.4 °F /  10.2 °C 29.9in /  1013.1hPa WSW 9.8mph /  15.8km/h 13.2mph /  21.2km/h 98% 0.01in /  0.3mm
11:38 51.1 °F /  10.6 °C 50.5 °F /  10.3 °C 29.9in /  1013.1hPa WSW 7.6mph /  12.2km/h 12.8mph /  20.6km/h 98% 0.01in /  0.3mm
11:43 51.3 °F /  10.7 °C 50.7 °F /  10.4 °C 29.9in /  1013.1hPa SW 7.8mph /  12.6km/h 10.5mph /  16.9km/h 98% 0.01in /  0.3mm
11:48 51.4 °F /  10.8 °C 50.9 °F /  10.5 °C 29.9in /  1013.1hPa WSW 10.1mph /  16.3km/h 13.2mph /  21.2km/h 98% 0.01in /  0.3mm
11:53 51.6 °F /  10.9 °C 51.1 °F /  10.6 °C 29.9in /  1013.1hPa WSW 8.5mph /  13.7km/h 13.2mph /  21.2km/h 98% 0.01in /  0.3mm
11:59 51.8 °F /  11.0 °C 50.9 °F /  10.5 °C 29.9in /  1013.1hPa WSW 10.5mph /  16.9km/h 15.4mph /  24.8km/h 97% 0.01in /  0.3mm
12:03 52 °F /  11.1 °C 51.1 °F /  10.6 °C 29.9in /  1013.1hPa WSW 10.1mph /  16.3km/h 15.4mph /  24.8km/h 97% 0.01in /  0.3mm
12:08 52.3 °F /  11.3 °C 51.4 °F /  10.8 °C 29.9in /  1013.1hPa WSW 10.3mph /  16.6km/h 19.5mph /  31.4km/h 97% 0in /  0.0mm
12:13 52.5 °F /  11.4 °C 51.6 °F /  10.9 °C 29.9in /  1013.1hPa WSW 13.2mph /  21.2km/h 19.5mph /  31.4km/h 97% 0in /  0.0mm
12:18 52.5 °F /  11.4 °C 51.6 °F /  10.9 °C 29.9in /  1013.1hPa WSW 10.7mph /  17.2km/h 17.4mph /  28.0km/h 97% 0.01in /  0.3mm
12:23 52.5 °F /  11.4 °C 51.8 °F /  11.0 °C 29.9in /  1013.1hPa WSW 13.4mph /  21.6km/h 17.4mph /  28.0km/h 97% 0.01in /  0.3mm
12:28 52.5 °F /  11.4 °C 51.8 °F /  11.0 °C 29.9in /  1013.1hPa WSW 10.7mph /  17.2km/h 17.7mph /  28.5km/h 97% 0.01in /  0.3mm
12:33 52.9 °F /  11.6 °C 52 °F /  11.1 °C 29.9in /  1013.1hPa WSW 12.8mph /  20.6km/h 17.7mph /  28.5km/h 97% 0.01in /  0.3mm
12:38 52.9 °F /  11.6 °C 52 °F /  11.1 °C 29.9in /  1012.1hPa WSW 11mph /  17.7km/h 16.3mph /  26.2km/h 97% 0.01in /  0.3mm
12:43 52.9 °F /  11.6 °C 52 °F /  11.1 °C 29.9in /  1012.1hPa WSW 17.2mph /  27.7km/h 17.2mph /  27.7km/h 97% 0.01in /  0.3mm
12:48 53.1 °F /  11.7 °C 52.2 °F /  11.2 °C 29.9in /  1012.1hPa West 12.1mph /  19.5km/h 17.2mph /  27.7km/h 97% 0.01in /  0.3mm
12:53 53.2 °F /  11.8 °C 52.2 °F /  11.2 °C 29.9in /  1012.1hPa West 15.2mph /  24.5km/h 22.8mph /  36.7km/h 96% 0.01in /  0.3mm
12:59 53.2 °F /  11.8 °C 52.2 °F /  11.2 °C 29.9in /  1012.1hPa WSW 15.7mph /  25.3km/h 22.8mph /  36.7km/h 96% 0.01in /  0.3mm
13:04 53.2 °F /  11.8 °C 52.2 °F /  11.2 °C 29.9in /  1012.1hPa West 10.1mph /  16.3km/h 22.6mph /  36.4km/h 96% 0.01in /  0.3mm
13:09 53.2 °F /  11.8 °C 52.2 °F /  11.2 °C 29.9in /  1012.1hPa WSW 15.4mph /  24.8km/h 22.6mph /  36.4km/h 96% 0.01in /  0.3mm
13:14 53.2 °F /  11.8 °C 52.2 °F /  11.2 °C 29.9in /  1012.1hPa WSW 14.8mph /  23.8km/h 18.1mph /  29.1km/h 96% 0in /  0.0mm
13:19 53.4 °F /  11.9 °C 52.3 °F /  11.3 °C 29.9in /  1012.1hPa WSW 14.3mph /  23.0km/h 17.7mph /  28.5km/h 96% 0in /  0.0mm
13:24 53.2 °F /  11.8 °C 52 °F /  11.1 °C 29.9in /  1012.1hPa West 13.9mph /  22.4km/h 23mph /  37.0km/h 95% 0.01in /  0.3mm
13:29 53.2 °F /  11.8 °C 52 °F /  11.1 °C 29.9in /  1012.1hPa WSW 13.4mph /  21.6km/h 23mph /  37.0km/h 95% 0.03in /  0.8mm
13:34 53.2 °F /  11.8 °C 52 °F /  11.1 °C 29.9in /  1012.1hPa WSW 13mph /  20.9km/h 18.6mph /  29.9km/h 95% 0.04in /  1.0mm
13:39 53.2 °F /  11.8 °C 52 °F /  11.1 °C 29.9in /  1011.1hPa WSW 11.9mph /  19.1km/h 18.6mph /  29.9km/h 95% 0.05in /  1.3mm
13:44 53.4 °F /  11.9 °C 52.2 °F /  11.2 °C 29.9in /  1011.1hPa WSW 14.8mph /  23.8km/h 22.6mph /  36.4km/h 95% 0.05in /  1.3mm
13:49 53.4 °F /  11.9 °C 52.2 °F /  11.2 °C 29.9in /  1011.1hPa WSW 12.3mph /  19.8km/h 22.6mph /  36.4km/h 95% 0.05in /  1.3mm
13:54 53.4 °F /  11.9 °C 52.3 °F /  11.3 °C 29.9in /  1011.1hPa WSW 15.4mph /  24.8km/h 21.9mph /  35.2km/h 96% 0.05in /  1.3mm
13:59 53.4 °F /  11.9 °C 52.3 °F /  11.3 °C 29.9in /  1011.1hPa West 17.9mph /  28.8km/h 22.6mph /  36.4km/h 96% 0.06in /  1.5mm
14:04 53.8 °F /  12.1 °C 52.5 °F /  11.4 °C 29.9in /  1011.1hPa WSW 17.7mph /  28.5km/h 24.4mph /  39.3km/h 96% 0.06in /  1.5mm
14:09 53.8 °F /  12.1 °C 52.5 °F /  11.4 °C 29.9in /  1012.1hPa WSW 15.4mph /  24.8km/h 24.4mph /  39.3km/h 96% 0.06in /  1.5mm
14:14 54 °F /  12.2 °C 52.9 °F /  11.6 °C 29.9in /  1012.1hPa SW 13.9mph /  22.4km/h 28mph /  45.1km/h 96% 0.06in /  1.5mm
14:19 54 °F /  12.2 °C 52.9 °F /  11.6 °C 29.9in /  1012.1hPa WSW 19.9mph /  32.0km/h 28mph /  45.1km/h 96% 0.06in /  1.5mm
14:24 54 °F /  12.2 °C 52.9 °F /  11.6 °C 29.9in /  1011.1hPa West 14.1mph /  22.7km/h 26.6mph /  42.8km/h 96% 0.05in /  1.3mm
14:29 54 °F /  12.2 °C 52.9 °F /  11.6 °C 29.9in /  1011.1hPa West 17.7mph /  28.5km/h 23.5mph /  37.8km/h 96% 0.03in /  0.8mm
14:34 54.1 °F /  12.3 °C 53.1 °F /  11.7 °C 29.9in /  1011.1hPa WSW 16.6mph /  26.7km/h 23mph /  37.0km/h 96% 0.02in /  0.5mm
14:39 54.1 °F /  12.3 °C 53.1 °F /  11.7 °C 29.9in /  1012.1hPa West 19.5mph /  31.4km/h 27.7mph /  44.6km/h 96% 0.01in /  0.3mm
14:44 54.1 °F /  12.3 °C 52.9 °F /  11.6 °C 29.9in /  1012.1hPa West 22.1mph /  35.6km/h 27.7mph /  44.6km/h 95% 0.01in /  0.3mm
14:49 54.1 °F /  12.3 °C 52.9 °F /  11.6 °C 29.9in /  1012.1hPa WSW 18.8mph /  30.2km/h 27.3mph /  43.9km/h 95% 0.01in /  0.3mm
14:54 54.1 °F /  12.3 °C 52.9 °F /  11.6 °C 29.9in /  1012.1hPa WSW 15.2mph /  24.5km/h 25.3mph /  40.7km/h 95% 0.01in /  0.3mm
14:59 54.1 °F /  12.3 °C 52.9 °F /  11.6 °C 29.9in /  1012.1hPa West 20.8mph /  33.5km/h 25.1mph /  40.4km/h 95% 0in /  0.0mm
15:04 54.1 °F /  12.3 °C 52.9 °F /  11.6 °C 29.9in /  1012.1hPa West 25.5mph /  41.0km/h 27.5mph /  44.2km/h 95% 0in /  0.0mm
15:09 54.1 °F /  12.3 °C 52.9 °F /  11.6 °C 29.9in /  1013.1hPa SW 25.7mph /  41.4km/h 27.5mph /  44.2km/h 95% 0in /  0.0mm
15:14 54.1 °F /  12.3 °C 52.9 °F /  11.6 °C 29.9in /  1013.1hPa West 21mph /  33.8km/h 27.3mph /  43.9km/h 95% 0in /  0.0mm
15:19 54 °F /  12.2 °C 52.7 °F /  11.5 °C 29.9in /  1013.1hPa WNW 14.8mph /  23.8km/h 27.3mph /  43.9km/h 95% 0in /  0.0mm
15:24 54 °F /  12.2 °C 52.7 °F /  11.5 °C 29.9in /  1013.1hPa WSW 13.6mph /  21.9km/h 25.1mph /  40.4km/h 95% 0in /  0.0mm
15:29 54 °F /  12.2 °C 52.5 °F /  11.4 °C 29.9in /  1013.1hPa SW 19mph /  30.6km/h 23.9mph /  38.5km/h 95% 0in /  0.0mm
15:34 54 °F /  12.2 °C 52.9 °F /  11.6 °C 29.9in /  1013.1hPa West 13.2mph /  21.2km/h 22.8mph /  36.7km/h 96% 0in /  0.0mm
15:39 53.8 °F /  12.1 °C 52.5 °F /  11.4 °C 29.9in /  1013.1hPa West 17.7mph /  28.5km/h 24.2mph /  38.9km/h 96% 0in /  0.0mm
15:44 53.8 °F /  12.1 °C 52.5 °F /  11.4 °C 29.9in /  1013.1hPa West 13mph /  20.9km/h 24.2mph /  38.9km/h 96% 0in /  0.0mm
15:49 53.8 °F /  12.1 °C 52.5 °F /  11.4 °C 29.9in /  1013.1hPa West 18.8mph /  30.2km/h 22.4mph /  36.0km/h 96% 0in /  0.0mm
15:54 53.4 °F /  11.9 °C 52.3 °F /  11.3 °C 29.9in /  1013.1hPa West 15.4mph /  24.8km/h 23.7mph /  38.1km/h 96% 0in /  0.0mm
15:59 53.4 °F /  11.9 °C 52.3 °F /  11.3 °C 29.9in /  1013.1hPa West 17.2mph /  27.7km/h 24.2mph /  38.9km/h 96% 0in /  0.0mm
16:04 53.4 °F /  11.9 °C 52.3 °F /  11.3 °C 29.9in /  1013.1hPa WSW 17mph /  27.4km/h 24.2mph /  38.9km/h 96% 0in /  0.0mm
16:09 53.4 °F /  11.9 °C 52.3 °F /  11.3 °C 29.9in /  1013.1hPa West 13.2mph /  21.2km/h 21.3mph /  34.3km/h 96% 0in /  0.0mm
16:14 53.2 °F /  11.8 °C 52.2 °F /  11.2 °C 29.9in /  1013.1hPa West 13.9mph /  22.4km/h 23.9mph /  38.5km/h 96% 0in /  0.0mm
16:19 53.2 °F /  11.8 °C 52.2 °F /  11.2 °C 29.9in /  1013.1hPa West 21.3mph /  34.3km/h 23.9mph /  38.5km/h 96% 0in /  0.0mm
16:24 53.2 °F /  11.8 °C 52.2 °F /  11.2 °C 29.9in /  1013.1hPa WSW 19.7mph /  31.7km/h 23.7mph /  38.1km/h 96% 0in /  0.0mm
16:29 53.2 °F /  11.8 °C 52.2 °F /  11.2 °C 29.9in /  1013.1hPa West 14.8mph /  23.8km/h 23.7mph /  38.1km/h 96% 0in /  0.0mm
16:34 53.2 °F /  11.8 °C 52.2 °F /  11.2 °C 29.9in /  1013.1hPa West 8.5mph /  13.7km/h 26.2mph /  42.2km/h 96% 0in /  0.0mm
16:39 53.2 °F /  11.8 °C 52.2 °F /  11.2 °C 29.9in /  1013.1hPa WSW 14.1mph /  22.7km/h 26.2mph /  42.2km/h 96% 0in /  0.0mm
16:44 53.2 °F /  11.8 °C 52.2 °F /  11.2 °C 29.9in /  1013.1hPa WSW 17.4mph /  28.0km/h 26.4mph /  42.5km/h 96% 0in /  0.0mm
16:49 53.1 °F /  11.7 °C 52 °F /  11.1 °C 29.9in /  1013.1hPa WSW 25.5mph /  41.0km/h 26.4mph /  42.5km/h 96% 0in /  0.0mm
16:50 53.1 °F /  11.7 °C 52 °F /  11.1 °C 29.9in /  1013.1hPa West 23.5mph /  37.8km/h 26.4mph /  42.5km/h 96% 0in /  0.0mm
16:55 53.1 °F /  11.7 °C 52 °F /  11.1 °C 29.9in /  1013.1hPa WSW 22.4mph /  36.0km/h 25.5mph /  41.0km/h 96% 0in /  0.0mm
17:00 53.1 °F /  11.7 °C 52 °F /  11.1 °C 29.9in /  1013.1hPa WSW 22.1mph /  35.6km/h 25.3mph /  40.7km/h 96% 0in /  0.0mm
17:05 53.1 °F /  11.7 °C 52 °F /  11.1 °C 29.9in /  1013.1hPa West 16.1mph /  25.9km/h 24.6mph /  39.6km/h 96% 0in /  0.0mm
17:10 53.1 °F /  11.7 °C 52 °F /  11.1 °C 29.9in /  1013.1hPa WSW 15.4mph /  24.8km/h 24.4mph /  39.3km/h 96% 0in /  0.0mm
17:15 52.9 °F /  11.6 °C 51.6 °F /  10.9 °C 29.9in /  1013.1hPa West 22.4mph /  36.0km/h 24.4mph /  39.3km/h 96% 0in /  0.0mm
17:20 53.1 °F /  11.7 °C 52 °F /  11.1 °C 29.9in /  1013.1hPa West 10.3mph /  16.6km/h 27.3mph /  43.9km/h 96% 0in /  0.0mm
17:25 52.9 °F /  11.6 °C 51.6 °F /  10.9 °C 29.9in /  1013.1hPa WSW 15.2mph /  24.5km/h 27.3mph /  43.9km/h 96% 0in /  0.0mm
17:30 52.9 °F /  11.6 °C 51.6 °F /  10.9 °C 29.9in /  1013.1hPa West 16.6mph /  26.7km/h 22.8mph /  36.7km/h 96% 0in /  0.0mm
17:36 52.9 °F /  11.6 °C 51.6 °F /  10.9 °C 29.9in /  1013.1hPa West 13mph /  20.9km/h 22.8mph /  36.7km/h 96% 0in /  0.0mm
17:41 52.9 °F /  11.6 °C 51.6 °F /  10.9 °C 29.9in /  1013.1hPa West 14.5mph /  23.3km/h 21.9mph /  35.2km/h 96% 0in /  0.0mm
17:46 52.9 °F /  11.6 °C 51.6 °F /  10.9 °C 29.9in /  1013.1hPa West 17.4mph /  28.0km/h 22.8mph /  36.7km/h 96% 0in /  0.0mm
17:51 52.9 °F /  11.6 °C 51.6 °F /  10.9 °C 29.9in /  1013.1hPa West 17.9mph /  28.8km/h 22.8mph /  36.7km/h 96% 0in /  0.0mm
17:56 52.9 °F /  11.6 °C 51.6 °F /  10.9 °C 29.9in /  1013.1hPa West 17.2mph /  27.7km/h 21.3mph /  34.3km/h 96% 0in /  0.0mm
18:01 52.9 °F /  11.6 °C 51.6 °F /  10.9 °C 29.9in /  1013.1hPa West 20.4mph /  32.8km/h 20.4mph /  32.8km/h 96% 0in /  0.0mm
18:06 52.9 °F /  11.6 °C 51.6 °F /  10.9 °C 29.9in /  1013.1hPa West 18.6mph /  29.9km/h 23mph /  37.0km/h 96% 0in /  0.0mm
18:10 52.9 °F /  11.6 °C 51.6 °F /  10.9 °C 29.9in /  1013.1hPa West 17.2mph /  27.7km/h 23.3mph /  37.5km/h 96% 0in /  0.0mm
18:15 52.9 °F /  11.6 °C 51.6 °F /  10.9 °C 29.9in /  1013.1hPa WSW 12.3mph /  19.8km/h 23.3mph /  37.5km/h 96% 0in /  0.0mm
18:21 52.9 °F /  11.6 °C 51.6 °F /  10.9 °C 29.9in /  1013.1hPa West 17.4mph /  28.0km/h 23.3mph /  37.5km/h 96% 0in /  0.0mm
18:25 52.9 °F /  11.6 °C 51.6 °F /  10.9 °C 29.9in /  1013.1hPa West 17.2mph /  27.7km/h 23mph /  37.0km/h 96% 0in /  0.0mm
18:31 52.9 °F /  11.6 °C 51.6 °F /  10.9 °C 29.9in /  1013.1hPa West 18.1mph /  29.1km/h 25.3mph /  40.7km/h 96% 0in /  0.0mm
18:36 52.9 °F /  11.6 °C 51.6 °F /  10.9 °C 29.9in /  1013.1hPa West 22.6mph /  36.4km/h 25.3mph /  40.7km/h 96% 0in /  0.0mm
18:37 52.9 °F /  11.6 °C 51.6 °F /  10.9 °C 29.9in /  1013.1hPa West 14.8mph /  23.8km/h 23.9mph /  38.5km/h 96% 0in /  0.0mm
18:42 52.9 °F /  11.6 °C 51.6 °F /  10.9 °C 29.9in /  1014.1hPa West 12.8mph /  20.6km/h 23.5mph /  37.8km/h 96% 0in /  0.0mm
18:47 52.5 °F /  11.4 °C 51.4 °F /  10.8 °C 29.9in /  1014.1hPa WSW 17.7mph /  28.5km/h 22.8mph /  36.7km/h 96% 0in /  0.0mm
18:52 52.5 °F /  11.4 °C 51.4 °F /  10.8 °C 29.9in /  1014.1hPa West 9.2mph /  14.8km/h 22.8mph /  36.7km/h 96% 0in /  0.0mm
18:57 52.5 °F /  11.4 °C 51.4 °F /  10.8 °C 29.9in /  1014.1hPa West 14.8mph /  23.8km/h 22.8mph /  36.7km/h 96% 0in /  0.0mm
18:58 52.5 °F /  11.4 °C 51.4 °F /  10.8 °C 29.9in /  1014.1hPa WSW 20.4mph /  32.8km/h 20.4mph /  32.8km/h 96% 0in /  0.0mm
19:03 52.5 °F /  11.4 °C 51.4 °F /  10.8 °C 29.9in /  1014.1hPa West 14.8mph /  23.8km/h 20.4mph /  32.8km/h 96% 0in /  0.0mm
19:08 52.5 °F /  11.4 °C 51.4 °F /  10.8 °C 29.9in /  1014.1hPa West 17mph /  27.4km/h 23.3mph /  37.5km/h 96% 0in /  0.0mm
19:13 52.5 °F /  11.4 °C 51.4 °F /  10.8 °C 29.9in /  1014.1hPa WSW 15.2mph /  24.5km/h 23.3mph /  37.5km/h 96% 0in /  0.0mm
19:18 52.5 °F /  11.4 °C 51.4 °F /  10.8 °C 29.9in /  1014.1hPa West 9.4mph /  15.1km/h 21mph /  33.8km/h 96% 0in /  0.0mm
19:23 52.5 °F /  11.4 °C 51.4 °F /  10.8 °C 30in /  1015.1hPa WNW 14.8mph /  23.8km/h 21mph /  33.8km/h 96% 0in /  0.0mm
19:28 52.5 °F /  11.4 °C 51.4 °F /  10.8 °C 30in /  1015.1hPa WSW 16.1mph /  25.9km/h 17.7mph /  28.5km/h 96% 0in /  0.0mm
19:33 52.5 °F /  11.4 °C 51.4 °F /  10.8 °C 30in /  1015.1hPa WSW 15.4mph /  24.8km/h 19mph /  30.6km/h 96% 0in /  0.0mm
19:38 52.5 °F /  11.4 °C 51.4 °F /  10.8 °C 30in /  1015.1hPa West 11mph /  17.7km/h 19.7mph /  31.7km/h 96% 0in /  0.0mm
19:43 52.3 °F /  11.3 °C 51.3 °F /  10.7 °C 30in /  1015.1hPa West 16.1mph /  25.9km/h 19.7mph /  31.7km/h 96% 0in /  0.0mm
19:48 52.3 °F /  11.3 °C 51.3 °F /  10.7 °C 30in /  1015.1hPa West 10.5mph /  16.9km/h 17.2mph /  27.7km/h 96% 0in /  0.0mm
19:53 52.2 °F /  11.2 °C 51.1 °F /  10.6 °C 30in /  1015.1hPa West 4.3mph /  6.9km/h 17mph /  27.4km/h 96% 0in /  0.0mm
19:58 52.2 °F /  11.2 °C 51.1 °F /  10.6 °C 30in /  1015.1hPa SSW 10.1mph /  16.3km/h 16.8mph /  27.0km/h 96% 0in /  0.0mm
20:03 52.2 °F /  11.2 °C 51.1 °F /  10.6 °C 30in /  1015.1hPa West 10.7mph /  17.2km/h 16.8mph /  27.0km/h 96% 0in /  0.0mm
20:08 52.2 °F /  11.2 °C 51.1 °F /  10.6 °C 30in /  1015.1hPa SW 10.7mph /  17.2km/h 13.9mph /  22.4km/h 96% 0in /  0.0mm
20:13 52.2 °F /  11.2 °C 51.1 °F /  10.6 °C 30in /  1015.1hPa West 6.3mph /  10.1km/h 15.2mph /  24.5km/h 96% 0in /  0.0mm
20:18 52.2 °F /  11.2 °C 51.1 °F /  10.6 °C 30in /  1015.1hPa NNW 8.5mph /  13.7km/h 15.2mph /  24.5km/h 96% 0in /  0.0mm
20:23 52 °F /  11.1 °C 50.7 °F /  10.4 °C 29.9in /  1014.1hPa SW 6.3mph /  10.1km/h 13.2mph /  21.2km/h 96% 0in /  0.0mm
20:28 52 °F /  11.1 °C 50.7 °F /  10.4 °C 29.9in /  1014.1hPa West 6mph /  9.7km/h 11mph /  17.7km/h 96% 0in /  0.0mm
20:33 52 °F /  11.1 °C 50.7 °F /  10.4 °C 29.9in /  1014.1hPa West 9.2mph /  14.8km/h 10.7mph /  17.2km/h 96% 0in /  0.0mm
20:38 52 °F /  11.1 °C 50.7 °F /  10.4 °C 30in /  1015.1hPa WSW 7.4mph /  11.9km/h 10.1mph /  16.3km/h 96% 0in /  0.0mm
20:43 52 °F /  11.1 °C 50.7 °F /  10.4 °C 30in /  1015.1hPa West 7.4mph /  11.9km/h 10.5mph /  16.9km/h 96% 0.01in /  0.3mm
20:48 51.8 °F /  11.0 °C 50.7 °F /  10.4 °C 30in /  1015.1hPa WSW 8.1mph /  13.0km/h 10.5mph /  16.9km/h 96% 0.01in /  0.3mm
20:53 51.8 °F /  11.0 °C 50.7 °F /  10.4 °C 30in /  1015.1hPa West 5.6mph /  9.0km/h 9.6mph /  15.4km/h 96% 0.02in /  0.5mm
20:58 51.8 °F /  11.0 °C 50.7 °F /  10.4 °C 30in /  1015.1hPa West 6.3mph /  10.1km/h 9.6mph /  15.4km/h 96% 0.02in /  0.5mm
21:03 51.8 °F /  11.0 °C 50.7 °F /  10.4 °C 30in /  1015.1hPa WSW 3.6mph /  5.8km/h 10.5mph /  16.9km/h 96% 0.02in /  0.5mm
21:08 51.6 °F /  10.9 °C 50.5 °F /  10.3 °C 30in /  1015.1hPa WSW 5.8mph /  9.3km/h 10.5mph /  16.9km/h 96% 0.02in /  0.5mm
21:13 51.6 °F /  10.9 °C 50.5 °F /  10.3 °C 30in /  1015.1hPa West 3.8mph /  6.1km/h 8.5mph /  13.7km/h 96% 0.03in /  0.8mm
21:18 51.6 °F /  10.9 °C 50.5 °F /  10.3 °C 30in /  1015.1hPa WSW 3.4mph /  5.5km/h 8.5mph /  13.7km/h 96% 0.03in /  0.8mm
21:23 51.6 °F /  10.9 °C 50.5 °F /  10.3 °C 30in /  1016.1hPa West 6mph /  9.7km/h 7.2mph /  11.6km/h 96% 0.03in /  0.8mm
21:28 51.6 °F /  10.9 °C 50.5 °F /  10.3 °C 30in /  1016.1hPa WSW 3.8mph /  6.1km/h 7.2mph /  11.6km/h 96% 0.03in /  0.8mm
21:33 51.4 °F /  10.8 °C 50.4 °F /  10.2 °C 30in /  1016.1hPa West 6mph /  9.7km/h 6.7mph /  10.8km/h 96% 0.03in /  0.8mm
21:38 51.4 °F /  10.8 °C 50.4 °F /  10.2 °C 30in /  1016.1hPa WSW 4.9mph /  7.9km/h 6.3mph /  10.1km/h 96% 0.03in /  0.8mm
21:43 51.4 °F /  10.8 °C 50.4 °F /  10.2 °C 30in /  1016.1hPa West 2.9mph /  4.7km/h 6.3mph /  10.1km/h 96% 0.04in /  1.0mm
21:48 51.4 °F /  10.8 °C 50.4 °F /  10.2 °C 30in /  1016.1hPa West 4.5mph /  7.2km/h 4.9mph /  7.9km/h 96% 0.04in /  1.0mm
21:53 51.4 °F /  10.8 °C 50.4 °F /  10.2 °C 30in /  1016.1hPa Calm   4.9mph /  7.9km/h 96% 0.03in /  0.8mm
21:58 51.3 °F /  10.7 °C 50.2 °F /  10.1 °C 30in /  1016.1hPa WSW 6.3mph /  10.1km/h 6.3mph /  10.1km/h 96% 0.03in /  0.8mm
22:03 51.3 °F /  10.7 °C 50.2 °F /  10.1 °C 30in /  1016.1hPa WSW 4.3mph /  6.9km/h 6.3mph /  10.1km/h 96% 0.03in /  0.8mm
22:08 51.3 °F /  10.7 °C 50.2 °F /  10.1 °C 30in /  1016.1hPa WSW 5.8mph /  9.3km/h 6.5mph /  10.5km/h 96% 0.03in /  0.8mm
22:13 51.3 °F /  10.7 °C 50.2 °F /  10.1 °C 30in /  1016.1hPa WSW 6mph /  9.7km/h 8.1mph /  13.0km/h 96% 0.01in /  0.3mm
22:18 51.3 °F /  10.7 °C 50.2 °F /  10.1 °C 30in /  1016.1hPa WSW 5.6mph /  9.0km/h 8.1mph /  13.0km/h 96% 0.01in /  0.3mm
22:23 51.3 °F /  10.7 °C 50.2 °F /  10.1 °C 30in /  1016.1hPa West 5.8mph /  9.3km/h 6.5mph /  10.5km/h 96% 0.01in /  0.3mm
22:28 51.3 °F /  10.7 °C 50.2 °F /  10.1 °C 30in /  1016.1hPa West 3.8mph /  6.1km/h 6.5mph /  10.5km/h 96% 0.01in /  0.3mm
22:33 51.3 °F /  10.7 °C 50.2 °F /  10.1 °C 30in /  1016.1hPa West 6.7mph /  10.8km/h 6.7mph /  10.8km/h 96% 0.01in /  0.3mm
22:38 51.3 °F /  10.7 °C 50.2 °F /  10.1 °C 30in /  1016.1hPa WSW 4.3mph /  6.9km/h 6.7mph /  10.8km/h 96% 0.01in /  0.3mm
22:43 51.3 °F /  10.7 °C 50.2 °F /  10.1 °C 30in /  1016.1hPa WSW 3.6mph /  5.8km/h 6.5mph /  10.5km/h 96% 0in /  0.0mm
22:48 51.3 °F /  10.7 °C 50.2 °F /  10.1 °C 30in /  1016.1hPa WSW 4mph /  6.4km/h 6.3mph /  10.1km/h 96% 0in /  0.0mm
22:53 51.1 °F /  10.6 °C 50 °F /  10.0 °C 30in /  1016.1hPa WSW 4.9mph /  7.9km/h 6.3mph /  10.1km/h 96% 0in /  0.0mm
22:58 51.1 °F /  10.6 °C 50 °F /  10.0 °C 30in /  1016.1hPa Calm   5.6mph /  9.0km/h 96% 0in /  0.0mm
23:03 51.1 °F /  10.6 °C 50 °F /  10.0 °C 30in /  1016.1hPa West 4.5mph /  7.2km/h 5.8mph /  9.3km/h 96% 0in /  0.0mm
23:08 51.1 °F /  10.6 °C 50 °F /  10.0 °C 30in /  1016.8hPa WSW 6mph /  9.7km/h 6.5mph /  10.5km/h 96% 0in /  0.0mm
23:13 51.1 °F /  10.6 °C 50 °F /  10.0 °C 30in /  1016.8hPa West 5.8mph /  9.3km/h 6.5mph /  10.5km/h 96% 0in /  0.0mm
23:18 51.1 °F /  10.6 °C 50 °F /  10.0 °C 30in /  1016.8hPa WSW 5.6mph /  9.0km/h 7.2mph /  11.6km/h 96% 0in /  0.0mm
23:23 51.1 °F /  10.6 °C 50 °F /  10.0 °C 30in /  1016.1hPa WSW 10.1mph /  16.3km/h 10.5mph /  16.9km/h 96% 0in /  0.0mm
23:28 51.1 °F /  10.6 °C 50 °F /  10.0 °C 30in /  1016.1hPa WSW 9.8mph /  15.8km/h 10.5mph /  16.9km/h 96% 0in /  0.0mm
23:33 51.1 °F /  10.6 °C 50 °F /  10.0 °C 30in /  1016.1hPa WSW 9.8mph /  15.8km/h 11mph /  17.7km/h 96% 0in /  0.0mm
23:38 51.3 °F /  10.7 °C 50.2 °F /  10.1 °C 30in /  1016.1hPa West 8.1mph /  13.0km/h 11mph /  17.7km/h 96% 0in /  0.0mm
23:43 51.3 °F /  10.7 °C 50.2 °F /  10.1 °C 30in /  1016.1hPa West 10.1mph /  16.3km/h 10.5mph /  16.9km/h 96% 0in /  0.0mm
23:48 51.3 °F /  10.7 °C 50.2 °F /  10.1 °C 30in /  1016.1hPa WSW 5.6mph /  9.0km/h 10.5mph /  16.9km/h 96% 0in /  0.0mm
23:53 51.3 °F /  10.7 °C 50.2 °F /  10.1 °C 30in /  1016.1hPa West 5.6mph /  9.0km/h 10.1mph /  16.3km/h 96% 0in /  0.0mm
23:58 51.3 °F /  10.7 °C 50.2 °F /  10.1 °C 30in /  1016.1hPa West 8.7mph /  14.0km/h 10.3mph /  16.6km/h 96% 0in /  0.0mm
Données Historique de Météo Turbie

Mise a jour : 22/05/2018 21:48:14
Généré par Cumulus 1.9.4 (1099)